< < Back
Terminal Aerodrome Forecast


Current Version              Previous Versions:   1  2  3  4  5  6  7  8  9  

Terminal Aerodrome Forecast

373
FTUS42 KCHS 240500
TAFSAV
TAF
KSAV 240525Z 2406/2506 00000KT P6SM BKN250
     FM241600 01005KT P6SM FEW250
     FM250000 00000KT P6SM SKC=



Latest METAR

762
SAUS80 KWBC 240800 RRB
MTRSAV
METAR KSAV 240753Z AUTO 00000KT 10SM CLR 11/08 A3002 RMK AO2 SLP164
T01060083 TSNO


USA.gov is the U.S. government's official web portal to all federal, state and local government web resources and services.